sensor_id;sensor_type;location;lat;lon;timestamp;temperature;humidity
66128;DHT22;52925;52.436;-1.952;2022-11-18T00:00:19;11.80;79.90
66128;DHT22;52925;52.436;-1.952;2022-11-18T00:01:39;11.70;79.80
66128;DHT22;52925;52.436;-1.952;2022-11-18T00:02:59;11.70;79.80
66128;DHT22;52925;52.436;-1.952;2022-11-18T00:04:21;11.70;79.80
66128;DHT22;52925;52.436;-1.952;2022-11-18T00:05:50;11.70;79.80
66128;DHT22;52925;52.436;-1.952;2022-11-18T00:07:11;11.70;79.80
66128;DHT22;52925;52.436;-1.952;2022-11-18T00:08:32;11.70;79.80
66128;DHT22;52925;52.436;-1.952;2022-11-18T00:09:52;11.70;79.90
66128;DHT22;52925;52.436;-1.952;2022-11-18T00:11:18;11.70;79.90
66128;DHT22;52925;52.436;-1.952;2022-11-18T00:12:53;11.70;79.90
66128;DHT22;52925;52.436;-1.952;2022-11-18T00:14:31;11.70;79.90
66128;DHT22;52925;52.436;-1.952;2022-11-18T00:15:59;11.70;79.90
66128;DHT22;52925;52.436;-1.952;2022-11-18T00:17:19;11.70;79.90
66128;DHT22;52925;52.436;-1.952;2022-11-18T00:18:40;11.70;79.90
66128;DHT22;52925;52.436;-1.952;2022-11-18T00:20:02;11.70;79.80
66128;DHT22;52925;52.436;-1.952;2022-11-18T00:21:23;11.70;79.90
66128;DHT22;52925;52.436;-1.952;2022-11-18T00:22:44;11.70;79.90
66128;DHT22;52925;52.436;-1.952;2022-11-18T00:24:05;11.70;79.90
66128;DHT22;52925;52.436;-1.952;2022-11-18T00:25:25;11.70;80.00
66128;DHT22;52925;52.436;-1.952;2022-11-18T00:26:46;11.70;79.90
66128;DHT22;52925;52.436;-1.952;2022-11-18T00:28:08;11.70;80.00
66128;DHT22;52925;52.436;-1.952;2022-11-18T00:29:28;11.70;80.00
66128;DHT22;52925;52.436;-1.952;2022-11-18T00:30:49;11.70;80.10
66128;DHT22;52925;52.436;-1.952;2022-11-18T00:32:09;11.70;80.00
66128;DHT22;52925;52.436;-1.952;2022-11-18T00:33:31;11.70;80.00
66128;DHT22;52925;52.436;-1.952;2022-11-18T00:34:52;11.70;80.00
66128;DHT22;52925;52.436;-1.952;2022-11-18T00:36:14;11.70;80.00
66128;DHT22;52925;52.436;-1.952;2022-11-18T00:37:34;11.70;80.00
66128;DHT22;52925;52.436;-1.952;2022-11-18T00:38:55;11.70;80.00
66128;DHT22;52925;52.436;-1.952;2022-11-18T00:40:16;11.70;80.00
66128;DHT22;52925;52.436;-1.952;2022-11-18T00:41:36;11.70;80.00
66128;DHT22;52925;52.436;-1.952;2022-11-18T00:43:15;11.70;80.00
66128;DHT22;52925;52.436;-1.952;2022-11-18T00:44:36;11.70;79.90
66128;DHT22;52925;52.436;-1.952;2022-11-18T00:45:55;11.70;79.90
66128;DHT22;52925;52.436;-1.952;2022-11-18T00:47:17;11.70;79.90
66128;DHT22;52925;52.436;-1.952;2022-11-18T00:48:38;11.70;79.90
66128;DHT22;52925;52.436;-1.952;2022-11-18T00:49:58;11.70;80.00
66128;DHT22;52925;52.436;-1.952;2022-11-18T00:51:20;11.70;80.00
66128;DHT22;52925;52.436;-1.952;2022-11-18T00:52:40;11.70;80.00
66128;DHT22;52925;52.436;-1.952;2022-11-18T00:54:00;11.70;79.90
66128;DHT22;52925;52.436;-1.952;2022-11-18T00:55:21;11.70;79.90
66128;DHT22;52925;52.436;-1.952;2022-11-18T00:56:42;11.70;80.00
66128;DHT22;52925;52.436;-1.952;2022-11-18T00:58:02;11.70;80.00
66128;DHT22;52925;52.436;-1.952;2022-11-18T00:59:23;11.70;80.00
66128;DHT22;52925;52.436;-1.952;2022-11-18T01:00:45;11.70;79.90
66128;DHT22;52925;52.436;-1.952;2022-11-18T01:02:07;11.70;79.90
66128;DHT22;52925;52.436;-1.952;2022-11-18T01:03:28;11.70;79.90
66128;DHT22;52925;52.436;-1.952;2022-11-18T01:04:47;11.70;79.90
66128;DHT22;52925;52.436;-1.952;2022-11-18T01:06:09;11.70;79.90
66128;DHT22;52925;52.436;-1.952;2022-11-18T01:07:30;11.70;79.90
66128;DHT22;52925;52.436;-1.952;2022-11-18T01:08:50;11.70;79.90
66128;DHT22;52925;52.436;-1.952;2022-11-18T01:10:11;11.70;79.90
66128;DHT22;52925;52.436;-1.952;2022-11-18T01:11:31;11.70;79.90
66128;DHT22;52925;52.436;-1.952;2022-11-18T01:13:17;11.70;79.90
66128;DHT22;52925;52.436;-1.952;2022-11-18T01:14:39;11.70;79.90
66128;DHT22;52925;52.436;-1.952;2022-11-18T01:15:59;11.70;79.90
66128;DHT22;52925;52.436;-1.952;2022-11-18T01:17:20;11.70;79.80
66128;DHT22;52925;52.436;-1.952;2022-11-18T01:18:40;11.70;79.80
66128;DHT22;52925;52.436;-1.952;2022-11-18T01:20:00;11.70;79.90
66128;DHT22;52925;52.436;-1.952;2022-11-18T01:21:22;11.70;79.90
66128;DHT22;52925;52.436;-1.952;2022-11-18T01:22:43;11.70;79.90
66128;DHT22;52925;52.436;-1.952;2022-11-18T01:24:05;11.70;79.90
66128;DHT22;52925;52.436;-1.952;2022-11-18T01:25:25;11.70;79.90
66128;DHT22;52925;52.436;-1.952;2022-11-18T01:26:46;11.70;79.80
66128;DHT22;52925;52.436;-1.952;2022-11-18T01:28:05;11.70;79.80
66128;DHT22;52925;52.436;-1.952;2022-11-18T01:29:27;11.70;79.80
66128;DHT22;52925;52.436;-1.952;2022-11-18T01:30:47;11.70;79.90
66128;DHT22;52925;52.436;-1.952;2022-11-18T01:32:08;11.70;79.80
66128;DHT22;52925;52.436;-1.952;2022-11-18T01:33:27;11.70;79.90
66128;DHT22;52925;52.436;-1.952;2022-11-18T01:34:49;11.70;79.90
66128;DHT22;52925;52.436;-1.952;2022-11-18T01:36:14;11.70;79.80
66128;DHT22;52925;52.436;-1.952;2022-11-18T01:37:34;11.70;79.90
66128;DHT22;52925;52.436;-1.952;2022-11-18T01:38:57;11.70;79.90
66128;DHT22;52925;52.436;-1.952;2022-11-18T01:40:17;11.70;79.80
66128;DHT22;52925;52.436;-1.952;2022-11-18T01:41:37;11.70;79.90
66128;DHT22;52925;52.436;-1.952;2022-11-18T01:42:58;11.70;79.80
66128;DHT22;52925;52.436;-1.952;2022-11-18T01:44:52;11.70;79.90
66128;DHT22;52925;52.436;-1.952;2022-11-18T01:46:14;11.70;79.80
66128;DHT22;52925;52.436;-1.952;2022-11-18T01:47:39;11.70;79.80
66128;DHT22;52925;52.436;-1.952;2022-11-18T01:49:04;11.70;79.80
66128;DHT22;52925;52.436;-1.952;2022-11-18T01:50:27;11.70;79.80
66128;DHT22;52925;52.436;-1.952;2022-11-18T01:51:50;11.70;79.80
66128;DHT22;52925;52.436;-1.952;2022-11-18T01:53:14;11.70;79.80
66128;DHT22;52925;52.436;-1.952;2022-11-18T01:54:39;11.70;79.80
66128;DHT22;52925;52.436;-1.952;2022-11-18T01:56:04;11.70;79.80
66128;DHT22;52925;52.436;-1.952;2022-11-18T01:57:27;11.70;79.80
66128;DHT22;52925;52.436;-1.952;2022-11-18T01:58:51;11.70;79.80
66128;DHT22;52925;52.436;-1.952;2022-11-18T02:00:13;11.70;79.80
66128;DHT22;52925;52.436;-1.952;2022-11-18T02:01:34;11.70;79.80
66128;DHT22;52925;52.436;-1.952;2022-11-18T02:02:55;11.70;79.80
66128;DHT22;52925;52.436;-1.952;2022-11-18T02:04:17;11.70;79.90
66128;DHT22;52925;52.436;-1.952;2022-11-18T02:05:37;11.70;79.90
66128;DHT22;52925;52.436;-1.952;2022-11-18T02:06:59;11.70;79.90
66128;DHT22;52925;52.436;-1.952;2022-11-18T02:08:20;11.70;80.00
66128;DHT22;52925;52.436;-1.952;2022-11-18T02:09:43;11.70;80.00
66128;DHT22;52925;52.436;-1.952;2022-11-18T02:11:03;11.70;80.00
66128;DHT22;52925;52.436;-1.952;2022-11-18T02:12:24;11.70;80.10
66128;DHT22;52925;52.436;-1.952;2022-11-18T02:13:44;11.70;80.80
66128;DHT22;52925;52.436;-1.952;2022-11-18T02:15:06;11.70;80.80
66128;DHT22;52925;52.436;-1.952;2022-11-18T02:16:35;11.70;80.10
66128;DHT22;52925;52.436;-1.952;2022-11-18T02:17:59;11.70;80.10
66128;DHT22;52925;52.436;-1.952;2022-11-18T02:19:44;11.70;80.10
66128;DHT22;52925;52.436;-1.952;2022-11-18T02:21:20;11.70;80.10
66128;DHT22;52925;52.436;-1.952;2022-11-18T02:24:54;11.70;80.10
66128;DHT22;52925;52.436;-1.952;2022-11-18T02:26:42;11.70;80.20
66128;DHT22;52925;52.436;-1.952;2022-11-18T02:28:36;11.70;80.10
66128;DHT22;52925;52.436;-1.952;2022-11-18T02:30:01;11.70;80.10
66128;DHT22;52925;52.436;-1.952;2022-11-18T02:31:26;11.70;80.10
66128;DHT22;52925;52.436;-1.952;2022-11-18T02:32:53;11.70;80.10
66128;DHT22;52925;52.436;-1.952;2022-11-18T02:34:24;11.70;80.00
66128;DHT22;52925;52.436;-1.952;2022-11-18T02:35:53;11.70;80.10
66128;DHT22;52925;52.436;-1.952;2022-11-18T02:37:21;11.70;80.00
66128;DHT22;52925;52.436;-1.952;2022-11-18T02:38:45;11.70;80.00
66128;DHT22;52925;52.436;-1.952;2022-11-18T02:40:12;11.60;80.00
66128;DHT22;52925;52.436;-1.952;2022-11-18T02:41:35;11.70;80.00
66128;DHT22;52925;52.436;-1.952;2022-11-18T02:43:01;11.70;80.00
66128;DHT22;52925;52.436;-1.952;2022-11-18T02:44:25;11.60;80.00
66128;DHT22;52925;52.436;-1.952;2022-11-18T02:45:51;11.70;80.00
66128;DHT22;52925;52.436;-1.952;2022-11-18T02:47:14;11.70;80.00
66128;DHT22;52925;52.436;-1.952;2022-11-18T02:48:39;11.70;80.10
66128;DHT22;52925;52.436;-1.952;2022-11-18T02:50:04;11.70;80.10
66128;DHT22;52925;52.436;-1.952;2022-11-18T02:51:27;11.70;80.20
66128;DHT22;52925;52.436;-1.952;2022-11-18T02:52:52;11.70;80.20
66128;DHT22;52925;52.436;-1.952;2022-11-18T02:54:14;11.60;80.00
66128;DHT22;52925;52.436;-1.952;2022-11-18T02:55:38;11.70;80.20
66128;DHT22;52925;52.436;-1.952;2022-11-18T02:57:00;11.70;80.20
66128;DHT22;52925;52.436;-1.952;2022-11-18T02:58:22;11.70;80.20
66128;DHT22;52925;52.436;-1.952;2022-11-18T02:59:43;11.70;80.10
66128;DHT22;52925;52.436;-1.952;2022-11-18T03:01:04;11.70;80.10
66128;DHT22;52925;52.436;-1.952;2022-11-18T03:02:25;11.70;80.10
66128;DHT22;52925;52.436;-1.952;2022-11-18T03:03:45;11.70;80.10
66128;DHT22;52925;52.436;-1.952;2022-11-18T03:05:09;11.70;80.00
66128;DHT22;52925;52.436;-1.952;2022-11-18T03:06:35;11.70;80.00
66128;DHT22;52925;52.436;-1.952;2022-11-18T03:08:00;11.70;80.00
66128;DHT22;52925;52.436;-1.952;2022-11-18T03:09:25;11.70;80.10
66128;DHT22;52925;52.436;-1.952;2022-11-18T03:10:56;11.70;80.00
66128;DHT22;52925;52.436;-1.952;2022-11-18T03:12:28;11.70;79.90
66128;DHT22;52925;52.436;-1.952;2022-11-18T03:14:05;11.70;79.90
66128;DHT22;52925;52.436;-1.952;2022-11-18T03:15:32;11.70;79.90
66128;DHT22;52925;52.436;-1.952;2022-11-18T03:16:59;11.60;79.90
66128;DHT22;52925;52.436;-1.952;2022-11-18T03:18:24;11.70;79.90
66128;DHT22;52925;52.436;-1.952;2022-11-18T03:19:57;11.60;79.90
66128;DHT22;52925;52.436;-1.952;2022-11-18T03:21:22;11.60;79.90
66128;DHT22;52925;52.436;-1.952;2022-11-18T03:22:48;11.70;80.00
66128;DHT22;52925;52.436;-1.952;2022-11-18T03:24:17;11.60;79.90
66128;DHT22;52925;52.436;-1.952;2022-11-18T03:25:44;11.60;79.80
66128;DHT22;52925;52.436;-1.952;2022-11-18T03:27:11;11.60;79.80
66128;DHT22;52925;52.436;-1.952;2022-11-18T03:28:36;11.60;79.80
66128;DHT22;52925;52.436;-1.952;2022-11-18T03:30:01;11.70;79.80
66128;DHT22;52925;52.436;-1.952;2022-11-18T03:31:26;11.60;79.70
66128;DHT22;52925;52.436;-1.952;2022-11-18T03:32:52;11.70;79.80
66128;DHT22;52925;52.436;-1.952;2022-11-18T03:34:26;11.70;79.70
66128;DHT22;52925;52.436;-1.952;2022-11-18T03:35:50;11.70;79.70
66128;DHT22;52925;52.436;-1.952;2022-11-18T03:37:14;11.60;79.60
66128;DHT22;52925;52.436;-1.952;2022-11-18T03:38:38;11.70;79.60
66128;DHT22;52925;52.436;-1.952;2022-11-18T03:40:03;11.70;79.60
66128;DHT22;52925;52.436;-1.952;2022-11-18T03:41:27;11.60;79.60
66128;DHT22;52925;52.436;-1.952;2022-11-18T03:42:51;11.70;79.60
66128;DHT22;52925;52.436;-1.952;2022-11-18T03:44:17;11.70;79.60
66128;DHT22;52925;52.436;-1.952;2022-11-18T03:45:42;11.60;79.50
66128;DHT22;52925;52.436;-1.952;2022-11-18T03:47:07;11.60;79.50
66128;DHT22;52925;52.436;-1.952;2022-11-18T03:48:34;11.70;79.60
66128;DHT22;52925;52.436;-1.952;2022-11-18T03:49:59;11.70;79.60
66128;DHT22;52925;52.436;-1.952;2022-11-18T03:51:27;11.70;79.60
66128;DHT22;52925;52.436;-1.952;2022-11-18T03:52:50;11.70;79.50
66128;DHT22;52925;52.436;-1.952;2022-11-18T03:54:14;11.70;79.50
66128;DHT22;52925;52.436;-1.952;2022-11-18T03:55:39;11.70;79.40
66128;DHT22;52925;52.436;-1.952;2022-11-18T03:57:03;11.70;79.40
66128;DHT22;52925;52.436;-1.952;2022-11-18T03:58:30;11.60;79.50
66128;DHT22;52925;52.436;-1.952;2022-11-18T03:59:57;11.70;79.50
66128;DHT22;52925;52.436;-1.952;2022-11-18T04:01:23;11.60;79.40
66128;DHT22;52925;52.436;-1.952;2022-11-18T04:02:44;11.60;79.40
66128;DHT22;52925;52.436;-1.952;2022-11-18T04:04:07;11.60;79.50
66128;DHT22;52925;52.436;-1.952;2022-11-18T04:05:30;11.70;79.50
66128;DHT22;52925;52.436;-1.952;2022-11-18T04:06:59;11.70;79.50
66128;DHT22;52925;52.436;-1.952;2022-11-18T04:08:23;11.60;79.40
66128;DHT22;52925;52.436;-1.952;2022-11-18T04:10:01;11.60;79.40
66128;DHT22;52925;52.436;-1.952;2022-11-18T04:11:25;11.70;79.40
66128;DHT22;52925;52.436;-1.952;2022-11-18T04:13:06;11.60;79.40
66128;DHT22;52925;52.436;-1.952;2022-11-18T04:14:30;11.60;79.30
66128;DHT22;52925;52.436;-1.952;2022-11-18T04:15:50;11.70;79.40
66128;DHT22;52925;52.436;-1.952;2022-11-18T04:17:14;11.70;79.50
66128;DHT22;52925;52.436;-1.952;2022-11-18T04:18:34;11.60;79.40
66128;DHT22;52925;52.436;-1.952;2022-11-18T04:19:56;11.70;79.40
66128;DHT22;52925;52.436;-1.952;2022-11-18T04:21:16;11.70;79.40
66128;DHT22;52925;52.436;-1.952;2022-11-18T04:22:37;11.70;79.30
66128;DHT22;52925;52.436;-1.952;2022-11-18T04:23:58;11.60;79.90
66128;DHT22;52925;52.436;-1.952;2022-11-18T04:25:18;11.70;79.30
66128;DHT22;52925;52.436;-1.952;2022-11-18T04:26:39;11.70;79.20
66128;DHT22;52925;52.436;-1.952;2022-11-18T04:27:58;11.70;79.20
66128;DHT22;52925;52.436;-1.952;2022-11-18T04:29:19;11.70;79.20
66128;DHT22;52925;52.436;-1.952;2022-11-18T04:30:39;11.70;79.20
66128;DHT22;52925;52.436;-1.952;2022-11-18T04:32:01;11.70;79.10
66128;DHT22;52925;52.436;-1.952;2022-11-18T04:33:21;11.70;79.30
66128;DHT22;52925;52.436;-1.952;2022-11-18T04:34:42;11.70;79.30
66128;DHT22;52925;52.436;-1.952;2022-11-18T04:36:04;11.70;79.30
66128;DHT22;52925;52.436;-1.952;2022-11-18T04:37:25;11.70;79.20
66128;DHT22;52925;52.436;-1.952;2022-11-18T04:38:46;11.70;79.20
66128;DHT22;52925;52.436;-1.952;2022-11-18T04:40:08;11.70;79.20
66128;DHT22;52925;52.436;-1.952;2022-11-18T04:41:28;11.70;79.20
66128;DHT22;52925;52.436;-1.952;2022-11-18T04:43:03;11.70;79.30
66128;DHT22;52925;52.436;-1.952;2022-11-18T04:44:24;11.70;79.30
66128;DHT22;52925;52.436;-1.952;2022-11-18T04:45:44;11.60;79.20
66128;DHT22;52925;52.436;-1.952;2022-11-18T04:47:06;11.60;79.30
66128;DHT22;52925;52.436;-1.952;2022-11-18T04:48:25;11.60;79.20
66128;DHT22;52925;52.436;-1.952;2022-11-18T04:49:46;11.70;79.20
66128;DHT22;52925;52.436;-1.952;2022-11-18T04:51:08;11.70;79.20
66128;DHT22;52925;52.436;-1.952;2022-11-18T04:52:28;11.70;79.20
66128;DHT22;52925;52.436;-1.952;2022-11-18T04:53:49;11.70;79.10
66128;DHT22;52925;52.436;-1.952;2022-11-18T04:55:09;11.70;79.10
66128;DHT22;52925;52.436;-1.952;2022-11-18T04:56:30;11.70;79.20
66128;DHT22;52925;52.436;-1.952;2022-11-18T04:57:50;11.70;79.00
66128;DHT22;52925;52.436;-1.952;2022-11-18T04:59:12;11.70;79.10
66128;DHT22;52925;52.436;-1.952;2022-11-18T05:00:32;11.70;79.00
66128;DHT22;52925;52.436;-1.952;2022-11-18T05:01:53;11.70;79.00
66128;DHT22;52925;52.436;-1.952;2022-11-18T05:03:14;11.70;79.00
66128;DHT22;52925;52.436;-1.952;2022-11-18T05:04:35;11.60;79.00
66128;DHT22;52925;52.436;-1.952;2022-11-18T05:05:55;11.60;78.90
66128;DHT22;52925;52.436;-1.952;2022-11-18T05:07:20;11.60;79.00
66128;DHT22;52925;52.436;-1.952;2022-11-18T05:08:41;11.60;79.00
66128;DHT22;52925;52.436;-1.952;2022-11-18T05:10:01;11.60;79.00
66128;DHT22;52925;52.436;-1.952;2022-11-18T05:11:22;11.60;78.90
66128;DHT22;52925;52.436;-1.952;2022-11-18T05:13:01;11.60;78.90
66128;DHT22;52925;52.436;-1.952;2022-11-18T05:14:21;11.60;79.00
66128;DHT22;52925;52.436;-1.952;2022-11-18T05:15:44;11.60;79.00
66128;DHT22;52925;52.436;-1.952;2022-11-18T05:17:07;11.60;78.90
66128;DHT22;52925;52.436;-1.952;2022-11-18T05:18:27;11.60;78.90
66128;DHT22;52925;52.436;-1.952;2022-11-18T05:19:48;11.60;79.00
66128;DHT22;52925;52.436;-1.952;2022-11-18T05:21:08;11.60;78.90
66128;DHT22;52925;52.436;-1.952;2022-11-18T05:22:30;11.60;78.90
66128;DHT22;52925;52.436;-1.952;2022-11-18T05:23:51;11.70;79.00
66128;DHT22;52925;52.436;-1.952;2022-11-18T05:25:11;11.70;78.90
66128;DHT22;52925;52.436;-1.952;2022-11-18T05:26:32;11.60;78.80
66128;DHT22;52925;52.436;-1.952;2022-11-18T05:27:52;11.70;78.90
66128;DHT22;52925;52.436;-1.952;2022-11-18T05:29:12;11.60;78.80
66128;DHT22;52925;52.436;-1.952;2022-11-18T05:30:32;11.60;78.90
66128;DHT22;52925;52.436;-1.952;2022-11-18T05:31:53;11.70;78.90
66128;DHT22;52925;52.436;-1.952;2022-11-18T05:33:13;11.60;78.80
66128;DHT22;52925;52.436;-1.952;2022-11-18T05:34:33;11.60;78.80
66128;DHT22;52925;52.436;-1.952;2022-11-18T05:35:54;11.60;78.80
66128;DHT22;52925;52.436;-1.952;2022-11-18T05:37:14;11.70;78.80
66128;DHT22;52925;52.436;-1.952;2022-11-18T05:38:36;11.70;78.80
66128;DHT22;52925;52.436;-1.952;2022-11-18T05:39:56;11.60;79.50
66128;DHT22;52925;52.436;-1.952;2022-11-18T05:41:18;11.70;78.90
66128;DHT22;52925;52.436;-1.952;2022-11-18T05:42:56;11.60;78.90
66128;DHT22;52925;52.436;-1.952;2022-11-18T05:44:32;11.60;78.90
66128;DHT22;52925;52.436;-1.952;2022-11-18T05:45:51;11.60;78.70
66128;DHT22;52925;52.436;-1.952;2022-11-18T05:47:12;11.60;78.70
66128;DHT22;52925;52.436;-1.952;2022-11-18T05:48:33;11.60;78.80
66128;DHT22;52925;52.436;-1.952;2022-11-18T05:49:53;11.60;78.70
66128;DHT22;52925;52.436;-1.952;2022-11-18T05:51:14;11.60;78.80
66128;DHT22;52925;52.436;-1.952;2022-11-18T05:52:34;11.60;78.70
66128;DHT22;52925;52.436;-1.952;2022-11-18T05:53:56;11.60;78.70
66128;DHT22;52925;52.436;-1.952;2022-11-18T05:55:18;11.60;78.70
66128;DHT22;52925;52.436;-1.952;2022-11-18T05:56:42;11.60;78.80
66128;DHT22;52925;52.436;-1.952;2022-11-18T05:58:03;11.60;78.70
66128;DHT22;52925;52.436;-1.952;2022-11-18T05:59:23;11.60;78.70
66128;DHT22;52925;52.436;-1.952;2022-11-18T06:00:46;11.60;78.70
66128;DHT22;52925;52.436;-1.952;2022-11-18T06:02:12;11.60;78.70
66128;DHT22;52925;52.436;-1.952;2022-11-18T06:03:37;11.60;78.70
66128;DHT22;52925;52.436;-1.952;2022-11-18T06:04:58;11.60;78.70
66128;DHT22;52925;52.436;-1.952;2022-11-18T06:06:21;11.60;78.60
66128;DHT22;52925;52.436;-1.952;2022-11-18T06:07:43;11.70;78.80
66128;DHT22;52925;52.436;-1.952;2022-11-18T06:09:06;11.60;78.60
66128;DHT22;52925;52.436;-1.952;2022-11-18T06:10:29;11.60;78.60
66128;DHT22;52925;52.436;-1.952;2022-11-18T06:11:55;11.60;78.50
66128;DHT22;52925;52.436;-1.952;2022-11-18T06:13:18;11.60;78.60
66128;DHT22;52925;52.436;-1.952;2022-11-18T06:14:42;11.60;78.50
66128;DHT22;52925;52.436;-1.952;2022-11-18T06:16:03;11.60;78.60
66128;DHT22;52925;52.436;-1.952;2022-11-18T06:17:27;11.60;78.60
66128;DHT22;52925;52.436;-1.952;2022-11-18T06:18:50;11.70;78.60
66128;DHT22;52925;52.436;-1.952;2022-11-18T06:20:10;11.60;78.60
66128;DHT22;52925;52.436;-1.952;2022-11-18T06:21:32;11.60;78.50
66128;DHT22;52925;52.436;-1.952;2022-11-18T06:22:54;11.60;78.50
66128;DHT22;52925;52.436;-1.952;2022-11-18T06:24:17;11.60;78.40
66128;DHT22;52925;52.436;-1.952;2022-11-18T06:25:38;11.60;78.40
66128;DHT22;52925;52.436;-1.952;2022-11-18T06:27:00;11.60;78.50
66128;DHT22;52925;52.436;-1.952;2022-11-18T06:28:21;11.60;78.40
66128;DHT22;52925;52.436;-1.952;2022-11-18T06:29:42;11.60;78.40
66128;DHT22;52925;52.436;-1.952;2022-11-18T06:31:03;11.60;78.40
66128;DHT22;52925;52.436;-1.952;2022-11-18T06:32:23;11.70;78.50
66128;DHT22;52925;52.436;-1.952;2022-11-18T06:33:44;11.60;78.50
66128;DHT22;52925;52.436;-1.952;2022-11-18T06:35:05;11.60;78.40
66128;DHT22;52925;52.436;-1.952;2022-11-18T06:36:25;11.60;78.50
66128;DHT22;52925;52.436;-1.952;2022-11-18T06:37:46;11.70;78.50
66128;DHT22;52925;52.436;-1.952;2022-11-18T06:39:07;11.60;78.30
66128;DHT22;52925;52.436;-1.952;2022-11-18T06:40:29;11.60;78.30
66128;DHT22;52925;52.436;-1.952;2022-11-18T06:41:51;11.70;78.50
66128;DHT22;52925;52.436;-1.952;2022-11-18T06:43:12;11.60;78.40
66128;DHT22;52925;52.436;-1.952;2022-11-18T06:44:51;11.70;78.40
66128;DHT22;52925;52.436;-1.952;2022-11-18T06:46:13;11.70;78.20
66128;DHT22;52925;52.436;-1.952;2022-11-18T06:47:55;11.60;78.30
66128;DHT22;52925;52.436;-1.952;2022-11-18T06:49:16;11.60;78.20
66128;DHT22;52925;52.436;-1.952;2022-11-18T06:50:36;11.60;78.30
66128;DHT22;52925;52.436;-1.952;2022-11-18T06:51:57;11.60;78.20
66128;DHT22;52925;52.436;-1.952;2022-11-18T06:53:18;11.60;78.20
66128;DHT22;52925;52.436;-1.952;2022-11-18T06:54:37;11.60;78.20
66128;DHT22;52925;52.436;-1.952;2022-11-18T06:56:03;11.60;78.10
66128;DHT22;52925;52.436;-1.952;2022-11-18T06:57:23;11.60;78.30
66128;DHT22;52925;52.436;-1.952;2022-11-18T06:58:44;11.70;78.20
66128;DHT22;52925;52.436;-1.952;2022-11-18T07:00:06;11.60;78.20
66128;DHT22;52925;52.436;-1.952;2022-11-18T07:01:28;11.60;78.20
66128;DHT22;52925;52.436;-1.952;2022-11-18T07:02:50;11.70;78.20
66128;DHT22;52925;52.436;-1.952;2022-11-18T07:04:10;11.70;78.10
66128;DHT22;52925;52.436;-1.952;2022-11-18T07:05:31;11.60;78.20
66128;DHT22;52925;52.436;-1.952;2022-11-18T07:06:52;11.70;78.20
66128;DHT22;52925;52.436;-1.952;2022-11-18T07:08:12;11.60;78.10
66128;DHT22;52925;52.436;-1.952;2022-11-18T07:09:33;11.60;78.00
66128;DHT22;52925;52.436;-1.952;2022-11-18T07:10:54;11.60;78.00
66128;DHT22;52925;52.436;-1.952;2022-11-18T07:12:15;11.60;78.10
66128;DHT22;52925;52.436;-1.952;2022-11-18T07:13:36;11.60;78.00
66128;DHT22;52925;52.436;-1.952;2022-11-18T07:14:57;11.60;77.90
66128;DHT22;52925;52.436;-1.952;2022-11-18T07:16:20;11.60;77.90
66128;DHT22;52925;52.436;-1.952;2022-11-18T07:17:41;11.60;77.90
66128;DHT22;52925;52.436;-1.952;2022-11-18T07:19:08;11.60;77.90
66128;DHT22;52925;52.436;-1.952;2022-11-18T07:20:29;11.60;77.90
66128;DHT22;52925;52.436;-1.952;2022-11-18T07:21:50;11.70;78.00
66128;DHT22;52925;52.436;-1.952;2022-11-18T07:23:11;11.60;77.90
66128;DHT22;52925;52.436;-1.952;2022-11-18T07:24:31;11.60;77.90
66128;DHT22;52925;52.436;-1.952;2022-11-18T07:25:53;11.60;77.90
66128;DHT22;52925;52.436;-1.952;2022-11-18T07:27:14;11.60;77.90
66128;DHT22;52925;52.436;-1.952;2022-11-18T07:28:35;11.60;77.80
66128;DHT22;52925;52.436;-1.952;2022-11-18T07:29:56;11.60;77.80
66128;DHT22;52925;52.436;-1.952;2022-11-18T07:31:18;11.60;77.80
66128;DHT22;52925;52.436;-1.952;2022-11-18T07:32:39;11.60;77.80
66128;DHT22;52925;52.436;-1.952;2022-11-18T07:33:59;11.70;77.70
66128;DHT22;52925;52.436;-1.952;2022-11-18T07:35:20;11.60;77.70
66128;DHT22;52925;52.436;-1.952;2022-11-18T07:36:40;11.60;77.70
66128;DHT22;52925;52.436;-1.952;2022-11-18T07:38:01;11.60;77.70
66128;DHT22;52925;52.436;-1.952;2022-11-18T07:39:22;11.60;77.80
66128;DHT22;52925;52.436;-1.952;2022-11-18T07:40:43;11.60;77.70
66128;DHT22;52925;52.436;-1.952;2022-11-18T07:42:03;11.60;77.60
66128;DHT22;52925;52.436;-1.952;2022-11-18T07:43:25;11.60;77.60
66128;DHT22;52925;52.436;-1.952;2022-11-18T07:44:46;11.70;77.70
66128;DHT22;52925;52.436;-1.952;2022-11-18T07:46:11;11.60;77.60
66128;DHT22;52925;52.436;-1.952;2022-11-18T07:47:33;11.60;77.60
66128;DHT22;52925;52.436;-1.952;2022-11-18T07:48:55;11.70;77.50
66128;DHT22;52925;52.436;-1.952;2022-11-18T07:50:17;11.60;77.50
66128;DHT22;52925;52.436;-1.952;2022-11-18T07:51:39;11.60;77.50
66128;DHT22;52925;52.436;-1.952;2022-11-18T07:53:00;11.60;77.50
66128;DHT22;52925;52.436;-1.952;2022-11-18T07:54:19;11.70;77.50
66128;DHT22;52925;52.436;-1.952;2022-11-18T07:55:40;11.60;77.40
66128;DHT22;52925;52.436;-1.952;2022-11-18T07:57:01;11.60;77.40
66128;DHT22;52925;52.436;-1.952;2022-11-18T07:58:22;11.70;77.50
66128;DHT22;52925;52.436;-1.952;2022-11-18T07:59:44;11.60;77.30
66128;DHT22;52925;52.436;-1.952;2022-11-18T08:01:06;11.60;77.40
66128;DHT22;52925;52.436;-1.952;2022-11-18T08:02:27;11.60;77.30
66128;DHT22;52925;52.436;-1.952;2022-11-18T08:03:48;11.60;77.30
66128;DHT22;52925;52.436;-1.952;2022-11-18T08:05:09;11.60;77.30
66128;DHT22;52925;52.436;-1.952;2022-11-18T08:06:32;11.60;77.20
66128;DHT22;52925;52.436;-1.952;2022-11-18T08:07:53;11.60;77.20
66128;DHT22;52925;52.436;-1.952;2022-11-18T08:09:14;11.60;77.20
66128;DHT22;52925;52.436;-1.952;2022-11-18T08:10:35;11.60;77.00
66128;DHT22;52925;52.436;-1.952;2022-11-18T08:11:55;11.60;77.20
66128;DHT22;52925;52.436;-1.952;2022-11-18T08:13:16;11.60;77.20
66128;DHT22;52925;52.436;-1.952;2022-11-18T08:14:37;11.60;77.10
66128;DHT22;52925;52.436;-1.952;2022-11-18T08:15:59;11.60;77.10
66128;DHT22;52925;52.436;-1.952;2022-11-18T08:17:21;11.60;77.00
66128;DHT22;52925;52.436;-1.952;2022-11-18T08:18:41;11.60;77.00
66128;DHT22;52925;52.436;-1.952;2022-11-18T08:20:02;11.60;76.90
66128;DHT22;52925;52.436;-1.952;2022-11-18T08:21:23;11.60;77.00
66128;DHT22;52925;52.436;-1.952;2022-11-18T08:22:44;11.60;77.00
66128;DHT22;52925;52.436;-1.952;2022-11-18T08:24:06;11.60;76.90
66128;DHT22;52925;52.436;-1.952;2022-11-18T08:25:29;11.60;76.90
66128;DHT22;52925;52.436;-1.952;2022-11-18T08:26:48;11.60;76.90
66128;DHT22;52925;52.436;-1.952;2022-11-18T08:28:10;11.60;76.90
66128;DHT22;52925;52.436;-1.952;2022-11-18T08:29:29;11.60;76.80
66128;DHT22;52925;52.436;-1.952;2022-11-18T08:30:50;11.60;76.90
66128;DHT22;52925;52.436;-1.952;2022-11-18T08:32:12;11.60;76.70
66128;DHT22;52925;52.436;-1.952;2022-11-18T08:33:33;11.60;76.70
66128;DHT22;52925;52.436;-1.952;2022-11-18T08:34:54;11.60;76.90
66128;DHT22;52925;52.436;-1.952;2022-11-18T08:36:16;11.60;76.80
66128;DHT22;52925;52.436;-1.952;2022-11-18T08:37:37;11.60;76.80